KCOT/COT METAR and TAF weather

Enter ICAO airport designator
Station Type Date Time Source
KCOT METAR 2021/07/27 21:53 UTC NOAA

KCOT 272153Z AUTO 06010KT 10SM CLR 36/17 A2994 RMK AO2 SLP130 T03560167


Station Type Date Time Source
KCOT Decoded METAR 2021/07/27 21:53 UTC NOAA

COTULLA-LASALLE COUNTY AIRPORT , TX, United States (KCOT) 28-27N 099-13W 140M
Jul 27, 2021 - 05:53 PM EDT / 2021.07.27 2153 UTC
Wind: from the ENE (060 degrees) at 12 MPH (10 KT):0
Visibility: 10 mile(s):0
Sky conditions: clear
Temperature: 96.1 F (35.6 C)
Heat index: 97.0 F (36.1 C):1
Dew Point: 62.1 F (16.7 C)
Relative Humidity: 32%
Pressure (altimeter): 29.94 in. Hg (1013 hPa)
ob: KCOT 272153Z AUTO 06010KT 10SM CLR 36/17 A2994 RMK AO2 SLP130 T03560167
cycle: 22

Station Type Date Time Source
KCOT TAF 2021/07/27 18:21 UTC NOAA

TAF KCOT 271720Z 2718/2818 VRB03KT P6SM SCT250
FM272000 12010G15KT P6SM SKC
FM280300 VRB04KT P6SM FEW015
TEMPO 2812/2814 5SM BR BKN010

Example: see airport list